logo
Search for airport 
image banner adimage banner adimage banner ad
image banner ad

SELN - Belen

Located in Hacienda El Belen, Ecuador

ICAO - , IATA -

Data provided by Airmate  

General information

Coordinates: S0°14'31" W79°18'45"
Elevation is 1115 feet MSL.
Magnetic variation is -4° East
View others Airports in Pichincha

Operational data

Special qualification required
Current time UTC:
Current local time:
Weather at : - ( 0 km )
METAR: TXKF 152155Z 12008KT 9999 FEW034 FEW055 20/12 Q1023
View NOTAMs / SUP AIP / TFR affecting this airport [VIEW]
Communications frequencies: [VIEW]

Runways:

Airport contact information

Address: Hacienda El Belen Ecuador

Satellite view of SELN